createdAt,value
2018-01-16T00:01:17.456Z,0.90
2018-01-16T00:03:45.708Z,0.90
2018-01-16T00:06:13.992Z,1.08
2018-01-16T00:08:42.249Z,0.80
2018-01-16T00:11:10.564Z,1.07
2018-01-16T00:13:38.792Z,0.87
2018-01-16T00:16:07.318Z,0.80
2018-01-16T00:18:35.574Z,0.90
2018-01-16T00:21:04.055Z,0.82
2018-01-16T00:23:32.307Z,0.90
2018-01-16T00:26:00.607Z,0.70
2018-01-16T00:28:28.891Z,0.80
2018-01-16T00:30:57.170Z,0.90
2018-01-16T00:33:25.425Z,0.70
2018-01-16T00:35:54.654Z,1.00
2018-01-16T00:38:22.910Z,0.90
2018-01-16T00:40:51.162Z,1.00
2018-01-16T00:43:19.458Z,0.93
2018-01-16T00:45:47.727Z,1.30
2018-01-16T00:48:16.013Z,0.80
2018-01-16T00:50:44.279Z,1.10
2018-01-16T00:53:12.563Z,0.80
2018-01-16T00:55:40.839Z,0.90
2018-01-16T00:58:09.166Z,1.00
2018-01-16T01:00:37.429Z,1.10
2018-01-16T01:03:05.710Z,0.80
2018-01-16T01:05:33.971Z,0.83
2018-01-16T01:08:02.267Z,0.90
2018-01-16T01:10:30.517Z,0.80
2018-01-16T01:12:58.820Z,1.00
2018-01-16T01:15:27.087Z,0.80
2018-01-16T01:17:55.375Z,0.90
2018-01-16T01:20:23.702Z,1.10
2018-01-16T01:22:51.938Z,0.90
2018-01-16T01:25:20.235Z,0.90
2018-01-16T01:27:48.833Z,0.93
2018-01-16T01:30:17.134Z,0.90
2018-01-16T01:32:45.512Z,0.97
2018-01-16T01:35:13.803Z,1.17
2018-01-16T01:37:42.065Z,0.90
2018-01-16T01:40:10.360Z,1.03
2018-01-16T01:42:38.622Z,0.80
2018-01-16T01:45:06.892Z,1.30
2018-01-16T01:47:35.172Z,1.10
2018-01-16T01:50:04.453Z,1.12
2018-01-16T01:52:33.144Z,0.97
2018-01-16T01:55:01.431Z,0.93
2018-01-16T01:57:29.702Z,1.03
2018-01-16T01:59:57.982Z,1.03
2018-01-16T02:02:26.280Z,1.20
2018-01-16T02:04:54.524Z,0.80
2018-01-16T02:07:22.817Z,1.10
2018-01-16T02:09:51.076Z,1.03
2018-01-16T02:12:19.380Z,0.93
2018-01-16T02:14:47.627Z,1.00
2018-01-16T02:17:15.902Z,1.05
2018-01-16T02:19:44.166Z,0.90
2018-01-16T02:22:12.448Z,1.77
2018-01-16T02:24:40.703Z,1.73
2018-01-16T02:27:08.993Z,1.50
2018-01-16T02:29:37.294Z,1.43
2018-01-16T02:32:05.987Z,1.73
2018-01-16T02:34:34.227Z,1.20
2018-01-16T02:37:02.542Z,1.37
2018-01-16T02:39:30.805Z,1.30
2018-01-16T02:41:59.080Z,1.10
2018-01-16T02:44:27.355Z,1.50
2018-01-16T02:46:55.623Z,1.52
2018-01-16T02:49:23.923Z,1.30
2018-01-16T02:51:52.174Z,1.27
2018-01-16T02:54:20.479Z,0.85
2018-01-16T02:56:48.746Z,1.20
2018-01-16T02:59:17.018Z,1.13
2018-01-16T03:01:45.294Z,1.00
2018-01-16T03:04:13.561Z,1.00
2018-01-16T03:06:41.848Z,1.07
2018-01-16T03:09:10.160Z,1.12
2018-01-16T03:11:38.418Z,0.83
2018-01-16T03:14:06.695Z,0.90
2018-01-16T03:16:34.960Z,1.00
2018-01-16T03:19:03.262Z,1.00
2018-01-16T03:21:31.510Z,1.00
2018-01-16T03:23:59.776Z,1.23
2018-01-16T03:26:28.064Z,0.75
2018-01-16T03:28:56.335Z,0.80
2018-01-16T03:31:25.417Z,0.97
2018-01-16T03:33:53.663Z,0.87
2018-01-16T03:36:21.955Z,0.80
2018-01-16T03:38:50.200Z,0.87
2018-01-16T03:41:18.480Z,1.30
2018-01-16T03:43:46.717Z,1.10
2018-01-16T03:46:15.013Z,0.80
2018-01-16T03:48:43.259Z,1.03
2018-01-16T03:51:11.604Z,0.90
2018-01-16T03:53:39.894Z,1.10
2018-01-16T03:56:08.185Z,0.70
2018-01-16T03:58:36.752Z,1.23
2018-01-16T04:01:05.052Z,1.07
2018-01-16T04:03:33.330Z,0.97
2018-01-16T04:06:01.619Z,1.00
2018-01-16T04:08:29.895Z,1.17
2018-01-16T04:10:58.163Z,1.53
2018-01-16T04:13:26.457Z,1.10
2018-01-16T04:15:54.698Z,2.33
2018-01-16T04:18:23.004Z,1.10
2018-01-16T04:20:51.284Z,1.40
2018-01-16T04:23:19.568Z,1.00
2018-01-16T04:25:48.082Z,0.80
2018-01-16T04:28:16.367Z,0.90
2018-01-16T04:30:44.658Z,0.83
2018-01-16T04:33:12.902Z,0.80
2018-01-16T04:35:41.172Z,1.00
2018-01-16T04:38:09.473Z,0.90
2018-01-16T04:40:37.720Z,0.90
2018-01-16T04:43:06.353Z,1.10
2018-01-16T04:45:34.628Z,1.20
2018-01-16T04:48:02.927Z,1.10
2018-01-16T04:50:31.187Z,0.87
2018-01-16T04:52:59.756Z,1.10
2018-01-16T04:55:28.032Z,0.83
2018-01-16T04:57:56.279Z,1.20
2018-01-16T05:00:24.599Z,0.80
2018-01-16T05:02:52.873Z,0.60
2018-01-16T05:05:21.152Z,0.83
2018-01-16T05:07:49.425Z,0.87
2018-01-16T05:10:17.701Z,0.70
2018-01-16T05:12:45.968Z,0.80
2018-01-16T05:15:14.419Z,0.98
2018-01-16T05:17:42.651Z,1.00
2018-01-16T05:20:10.930Z,1.40
2018-01-16T05:22:39.187Z,1.27
2018-01-16T05:25:07.485Z,1.05
2018-01-16T05:27:35.772Z,1.30
2018-01-16T05:30:04.924Z,1.10
2018-01-16T05:32:33.195Z,1.10
2018-01-16T05:35:01.495Z,1.30
2018-01-16T05:37:29.803Z,1.10
2018-01-16T05:39:59.023Z,1.00
2018-01-16T05:42:27.307Z,1.13
2018-01-16T05:44:55.559Z,0.85
2018-01-16T05:47:23.849Z,0.80
2018-01-16T05:49:52.439Z,1.30
2018-01-16T05:52:20.729Z,0.80
2018-01-16T05:54:48.980Z,0.87
2018-01-16T05:57:17.299Z,1.00
2018-01-16T05:59:45.584Z,0.50
2018-01-16T06:02:13.866Z,0.60
2018-01-16T06:04:42.118Z,0.70
2018-01-16T06:07:10.411Z,0.70
2018-01-16T06:09:38.702Z,0.90
2018-01-16T06:12:06.964Z,0.70
2018-01-16T06:14:35.239Z,0.60
2018-01-16T06:17:04.544Z,0.70
2018-01-16T06:19:32.836Z,0.50
2018-01-16T06:22:01.103Z,0.60
2018-01-16T06:24:29.383Z,0.53
2018-01-16T06:26:57.638Z,0.60
2018-01-16T06:29:25.963Z,0.70
2018-01-16T06:31:54.239Z,0.93
2018-01-16T06:34:22.523Z,0.70
2018-01-16T06:36:50.805Z,0.73
2018-01-16T06:39:19.086Z,1.10
2018-01-16T06:41:47.358Z,0.80
2018-01-16T06:44:15.682Z,0.73
2018-01-16T06:46:44.004Z,0.53
2018-01-16T06:49:12.264Z,0.70
2018-01-16T06:51:40.546Z,0.60
2018-01-16T06:54:08.798Z,0.80
2018-01-16T06:56:37.419Z,0.70
2018-01-16T06:59:05.726Z,0.60
2018-01-16T07:01:34.160Z,0.67
2018-01-16T07:04:02.778Z,0.60
2018-01-16T07:06:31.065Z,1.00
2018-01-16T07:08:59.336Z,0.53
2018-01-16T07:11:27.602Z,0.60
2018-01-16T07:13:55.851Z,0.60
2018-01-16T07:16:24.135Z,0.93
2018-01-16T07:18:52.429Z,0.70
2018-01-16T07:21:20.679Z,0.80
2018-01-16T07:23:49.024Z,0.90
2018-01-16T07:26:17.351Z,0.62
2018-01-16T07:28:45.627Z,0.73
2018-01-16T07:31:13.879Z,0.80
2018-01-16T07:33:42.182Z,1.43
2018-01-16T07:36:10.446Z,0.60
2018-01-16T07:38:38.755Z,0.60
2018-01-16T07:41:07.177Z,0.87
2018-01-16T07:43:35.567Z,0.90
2018-01-16T07:46:03.836Z,0.80
2018-01-16T07:48:32.151Z,0.73
2018-01-16T07:51:00.424Z,1.00
2018-01-16T07:53:28.704Z,2.63
2018-01-16T07:55:56.994Z,1.10
2018-01-16T07:58:25.251Z,1.50
2018-01-16T08:00:53.548Z,1.40
2018-01-16T08:03:21.803Z,0.90
2018-01-16T08:05:50.112Z,1.20
2018-01-16T08:08:18.363Z,1.27
2018-01-16T08:10:46.658Z,1.30
2018-01-16T08:13:14.942Z,1.20
2018-01-16T08:15:43.211Z,0.90
2018-01-16T08:18:11.499Z,1.10
2018-01-16T08:20:39.754Z,1.50
2018-01-16T08:23:08.083Z,1.57
2018-01-16T08:25:36.397Z,1.30
2018-01-16T08:28:05.003Z,1.70
2018-01-16T08:30:33.250Z,1.40
2018-01-16T08:33:01.534Z,1.50
2018-01-16T08:35:30.615Z,1.53
2018-01-16T08:37:58.914Z,1.37
2018-01-16T08:40:27.231Z,1.60
2018-01-16T08:42:55.475Z,1.30
2018-01-16T08:45:23.752Z,1.60
2018-01-16T08:47:52.004Z,1.17
2018-01-16T08:50:20.323Z,1.23
2018-01-16T08:52:48.591Z,1.20
2018-01-16T08:55:16.913Z,1.00
2018-01-16T08:57:45.156Z,1.37
2018-01-16T09:00:13.439Z,1.00
2018-01-16T09:02:41.734Z,1.00
2018-01-16T09:05:10.023Z,1.20
2018-01-16T09:07:38.284Z,1.23
2018-01-16T09:10:06.566Z,1.30
2018-01-16T09:12:34.838Z,0.97
2018-01-16T09:15:04.115Z,0.70
2018-01-16T09:17:32.362Z,1.40
2018-01-16T09:20:00.668Z,0.87
2018-01-16T09:22:28.927Z,0.83
2018-01-16T09:24:57.216Z,1.00
2018-01-16T09:27:25.473Z,1.23
2018-01-16T09:29:53.772Z,1.00
2018-01-16T09:32:22.049Z,1.00
2018-01-16T09:34:50.312Z,1.30
2018-01-16T09:37:18.685Z,1.12
2018-01-16T09:39:46.938Z,1.43
2018-01-16T09:42:15.230Z,1.33
2018-01-16T09:44:43.528Z,1.53
2018-01-16T09:47:11.798Z,1.90
2018-01-16T09:49:40.108Z,3.08
2018-01-16T09:52:08.412Z,1.70
2018-01-16T09:54:36.668Z,1.73
2018-01-16T09:57:05.396Z,1.30
2018-01-16T09:59:33.666Z,3.20
2018-01-16T10:02:01.914Z,1.50
2018-01-16T10:04:30.192Z,1.80
2018-01-16T10:06:58.448Z,1.27
2018-01-16T10:09:26.765Z,1.40
2018-01-16T10:11:55.046Z,1.20
2018-01-16T10:14:23.360Z,3.30
2018-01-16T10:16:51.610Z,0.90
2018-01-16T10:19:19.935Z,0.70
2018-01-16T10:21:48.191Z,1.00
2018-01-16T10:24:16.470Z,0.90
2018-01-16T10:26:44.736Z,0.83
2018-01-16T10:29:13.025Z,1.15
2018-01-16T10:31:41.362Z,1.12
2018-01-16T10:34:09.605Z,0.70
2018-01-16T10:36:37.879Z,0.70
2018-01-16T10:39:06.150Z,0.70
2018-01-16T10:41:34.437Z,0.90
2018-01-16T10:44:02.706Z,0.80
2018-01-16T10:46:30.984Z,0.80
2018-01-16T10:48:59.351Z,0.60
2018-01-16T10:51:27.623Z,0.60
2018-01-16T10:53:55.867Z,0.68
2018-01-16T10:56:24.152Z,0.60
2018-01-16T10:58:52.423Z,0.50
2018-01-16T11:01:20.861Z,0.60
2018-01-16T11:03:49.080Z,0.57
2018-01-16T11:06:17.378Z,0.70
2018-01-16T11:08:47.807Z,0.70
2018-01-16T11:11:16.045Z,0.47
2018-01-16T11:13:44.406Z,0.40
2018-01-16T11:16:12.643Z,0.60
2018-01-16T11:18:40.967Z,0.70
2018-01-16T11:21:09.187Z,0.70
2018-01-16T11:23:37.524Z,0.60
2018-01-16T11:26:05.828Z,0.50
2018-01-16T11:28:34.155Z,0.67
2018-01-16T11:31:03.069Z,0.80
2018-01-16T11:33:31.332Z,0.77
2018-01-16T11:35:59.619Z,0.80
2018-01-16T11:38:27.867Z,0.77
2018-01-16T11:40:56.232Z,0.50
2018-01-16T11:43:24.482Z,0.67
2018-01-16T11:45:52.766Z,0.90
2018-01-16T11:48:21.025Z,0.60
2018-01-16T11:50:49.311Z,0.60
2018-01-16T11:53:17.555Z,0.67
2018-01-16T11:55:45.836Z,0.80
2018-01-16T11:58:14.182Z,0.70
2018-01-16T12:00:42.521Z,1.17
2018-01-16T12:03:10.769Z,0.77
2018-01-16T12:05:39.126Z,0.70
2018-01-16T12:08:07.456Z,1.00
2018-01-16T12:10:35.768Z,0.87
2018-01-16T12:13:04.040Z,0.70
2018-01-16T12:15:32.361Z,1.00
2018-01-16T12:18:00.658Z,0.70
2018-01-16T12:20:28.922Z,0.80
2018-01-16T12:22:57.489Z,0.90
2018-01-16T12:25:25.734Z,0.83
2018-01-16T12:27:54.074Z,0.80
2018-01-16T12:30:22.333Z,1.02
2018-01-16T12:32:50.622Z,0.93
2018-01-16T12:35:19.293Z,1.00
2018-01-16T12:37:47.571Z,1.07
2018-01-16T12:40:15.836Z,1.10
2018-01-16T12:42:44.131Z,0.93
2018-01-16T12:45:12.444Z,0.90
2018-01-16T12:47:40.704Z,0.90
2018-01-16T12:50:09.010Z,1.17
2018-01-16T12:52:37.995Z,0.97
2018-01-16T12:55:06.274Z,0.90
2018-01-16T12:57:34.561Z,0.80
2018-01-16T13:00:02.925Z,0.90
2018-01-16T13:02:31.172Z,1.20
2018-01-16T13:04:59.450Z,1.27
2018-01-16T13:07:27.771Z,1.37
2018-01-16T13:09:56.019Z,1.12
2018-01-16T13:12:24.405Z,1.70
2018-01-16T13:14:52.694Z,1.50
2018-01-16T13:17:20.982Z,1.63
2018-01-16T13:19:49.751Z,1.20
2018-01-16T13:22:18.034Z,1.20
2018-01-16T13:24:46.339Z,1.70
2018-01-16T13:27:14.628Z,1.20
2018-01-16T13:29:42.879Z,1.93
2018-01-16T13:32:11.223Z,1.63
2018-01-16T13:34:39.506Z,0.93
2018-01-16T13:37:07.783Z,1.10
2018-01-16T13:39:36.295Z,1.30
2018-01-16T13:42:05.065Z,2.35
2018-01-16T13:44:33.328Z,1.23
2018-01-16T13:47:01.591Z,1.47
2018-01-16T13:49:29.873Z,2.63
2018-01-16T13:51:58.143Z,1.70
2018-01-16T13:54:26.458Z,1.90
2018-01-16T13:56:54.800Z,1.73
2018-01-16T13:59:23.046Z,2.03
2018-01-16T14:01:51.294Z,2.10
2018-01-16T14:04:19.587Z,1.57
2018-01-16T14:06:47.842Z,1.90
2018-01-16T14:09:16.143Z,1.83
2018-01-16T14:11:44.425Z,1.80
2018-01-16T14:14:12.704Z,1.20
2018-01-16T14:16:41.824Z,1.40
2018-01-16T14:19:10.072Z,1.08
2018-01-16T14:21:38.440Z,1.50
2018-01-16T14:24:06.711Z,1.13
2018-01-16T14:26:34.998Z,1.20
2018-01-16T14:29:03.294Z,1.67
2018-01-16T14:31:31.578Z,1.57
2018-01-16T14:33:59.830Z,1.10
2018-01-16T14:36:28.121Z,1.67
2018-01-16T14:38:56.382Z,1.60
2018-01-16T14:41:24.813Z,1.10
2018-01-16T14:43:53.144Z,1.13
2018-01-16T14:46:21.391Z,1.15
2018-01-16T14:48:49.741Z,1.55
2018-01-16T14:51:18.046Z,2.10
2018-01-16T14:53:46.321Z,1.00
2018-01-16T14:56:14.599Z,1.17
2018-01-16T14:58:42.879Z,1.20
2018-01-16T15:01:11.142Z,1.23
2018-01-16T15:03:39.438Z,0.83
2018-01-16T15:06:07.709Z,1.00
2018-01-16T15:08:36.019Z,1.20
2018-01-16T15:11:04.416Z,1.15
2018-01-16T15:13:33.394Z,1.50
2018-01-16T15:16:01.695Z,1.40
2018-01-16T15:18:29.944Z,1.85
2018-01-16T15:20:58.312Z,1.50
2018-01-16T15:23:26.587Z,1.27
2018-01-16T15:25:54.903Z,1.03
2018-01-16T15:28:23.193Z,1.30
2018-01-16T15:30:51.473Z,1.60
2018-01-16T15:33:19.753Z,1.35
2018-01-16T15:35:48.028Z,1.23
2018-01-16T15:38:16.290Z,1.37
2018-01-16T15:40:44.590Z,1.00
2018-01-16T15:43:12.895Z,1.50
2018-01-16T15:45:41.159Z,1.77
2018-01-16T15:48:09.443Z,1.53
2018-01-16T15:50:37.700Z,1.20
2018-01-16T15:53:06.039Z,0.70
2018-01-16T15:55:34.312Z,0.80
2018-01-16T15:58:02.624Z,0.60
2018-01-16T16:00:30.893Z,0.70
2018-01-16T16:02:59.199Z,0.83
2018-01-16T16:05:27.483Z,0.80
2018-01-16T16:07:55.747Z,0.77
2018-01-16T16:10:24.047Z,1.00
2018-01-16T16:12:52.300Z,1.37
2018-01-16T16:15:20.632Z,1.40
2018-01-16T16:17:48.887Z,1.30
2018-01-16T16:20:17.987Z,0.90
2018-01-16T16:22:46.243Z,0.90
2018-01-16T16:25:14.560Z,1.00
2018-01-16T16:27:42.829Z,0.80
2018-01-16T16:30:11.124Z,1.40
2018-01-16T16:32:39.403Z,0.90
2018-01-16T16:35:07.885Z,1.07
2018-01-16T16:37:36.104Z,1.00
2018-01-16T16:40:04.804Z,0.90
2018-01-16T16:42:33.075Z,1.00
2018-01-16T16:45:01.404Z,1.20
2018-01-16T16:47:29.881Z,0.90
2018-01-16T16:49:58.142Z,0.87
2018-01-16T16:52:26.453Z,0.90
2018-01-16T16:54:54.761Z,1.20
2018-01-16T16:57:23.023Z,1.40
2018-01-16T16:59:51.361Z,0.70
2018-01-16T17:02:19.655Z,0.98
2018-01-16T17:04:47.914Z,1.00
2018-01-16T17:07:16.162Z,1.07
2018-01-16T17:09:44.453Z,1.10
2018-01-16T17:12:12.716Z,1.03
2018-01-16T17:14:41.028Z,1.60
2018-01-16T17:17:09.325Z,1.10
2018-01-16T17:19:37.642Z,1.30
2018-01-16T17:22:05.891Z,1.00
2018-01-16T17:24:34.151Z,1.30
2018-01-16T17:27:02.457Z,1.10
2018-01-16T17:29:30.704Z,1.20
2018-01-16T17:31:58.996Z,1.20
2018-01-16T17:34:27.264Z,1.03
2018-01-16T17:36:55.530Z,0.90
2018-01-16T17:39:23.792Z,0.93
2018-01-16T17:41:52.084Z,0.97
2018-01-16T17:44:20.376Z,0.90
2018-01-16T17:46:48.616Z,0.80
2018-01-16T17:49:16.891Z,0.90
2018-01-16T17:51:45.139Z,1.00
2018-01-16T17:54:13.422Z,0.90
2018-01-16T17:56:41.698Z,0.87
2018-01-16T17:59:10.267Z,0.70
2018-01-16T18:01:38.494Z,0.90
2018-01-16T18:04:06.770Z,0.70
2018-01-16T18:06:35.037Z,0.80
2018-01-16T18:09:03.325Z,0.70
2018-01-16T18:11:31.581Z,0.70
2018-01-16T18:13:59.911Z,0.80
2018-01-16T18:16:28.347Z,0.90
2018-01-16T18:18:56.624Z,0.90
2018-01-16T18:21:24.871Z,0.80
2018-01-16T18:23:53.143Z,0.90
2018-01-16T18:26:21.414Z,0.70
2018-01-16T18:28:49.680Z,1.20
2018-01-16T18:31:17.968Z,0.90
2018-01-16T18:33:46.227Z,0.90
2018-01-16T18:36:14.567Z,1.10
2018-01-16T18:38:42.818Z,1.10
2018-01-16T18:41:11.134Z,1.20
2018-01-16T18:43:39.377Z,0.93
2018-01-16T18:46:07.672Z,1.60
2018-01-16T18:48:35.920Z,1.23
2018-01-16T18:51:04.235Z,1.50
2018-01-16T18:53:32.487Z,1.30
2018-01-16T18:56:01.571Z,1.23
2018-01-16T18:58:29.878Z,1.53
2018-01-16T19:00:58.133Z,1.60
2018-01-16T19:03:26.423Z,1.10
2018-01-16T19:05:54.670Z,1.33
2018-01-16T19:08:22.982Z,1.60
2018-01-16T19:10:51.243Z,1.27
2018-01-16T19:13:19.525Z,1.50
2018-01-16T19:15:47.781Z,1.37
2018-01-16T19:18:16.041Z,1.80
2018-01-16T19:20:44.335Z,1.70
2018-01-16T19:23:12.606Z,2.03
2018-01-16T19:25:40.890Z,1.30
2018-01-16T19:28:09.138Z,1.80
2018-01-16T19:30:37.459Z,1.70
2018-01-16T19:33:05.714Z,1.40
2018-01-16T19:35:33.989Z,1.13
2018-01-16T19:38:02.471Z,1.13
2018-01-16T19:40:30.748Z,1.10
2018-01-16T19:42:58.996Z,1.10
2018-01-16T19:45:27.293Z,1.40
2018-01-16T19:47:55.541Z,1.50
2018-01-16T19:50:23.815Z,1.40
2018-01-16T19:52:52.051Z,1.20
2018-01-16T19:55:20.346Z,0.90
2018-01-16T19:57:48.745Z,1.40
2018-01-16T20:00:17.007Z,0.83
2018-01-16T20:02:45.287Z,1.30
2018-01-16T20:05:13.526Z,0.90
2018-01-16T20:07:42.698Z,0.90
2018-01-16T20:10:10.951Z,1.00
2018-01-16T20:12:39.240Z,1.00
2018-01-16T20:15:07.530Z,1.10
2018-01-16T20:17:35.843Z,1.80
2018-01-16T20:20:04.090Z,0.80
2018-01-16T20:22:32.392Z,1.10
2018-01-16T20:25:00.648Z,1.00
2018-01-16T20:27:28.951Z,1.20
2018-01-16T20:29:57.210Z,1.13
2018-01-16T20:32:25.486Z,1.00
2018-01-16T20:34:53.810Z,1.33
2018-01-16T20:37:22.034Z,1.20
2018-01-16T20:39:50.320Z,1.00
2018-01-16T20:42:18.574Z,1.10
2018-01-16T20:44:46.871Z,1.17
2018-01-16T20:47:15.172Z,1.03
2018-01-16T20:49:43.444Z,1.10
2018-01-16T20:52:11.766Z,1.13
2018-01-16T20:54:40.042Z,1.77
2018-01-16T20:57:08.319Z,1.10
2018-01-16T20:59:36.577Z,1.20
2018-01-16T21:02:04.849Z,1.17
2018-01-16T21:04:33.097Z,0.97
2018-01-16T21:07:01.374Z,0.87
2018-01-16T21:09:29.627Z,1.30
2018-01-16T21:11:58.220Z,1.40
2018-01-16T21:14:26.471Z,1.53
2018-01-16T21:16:54.747Z,1.53
2018-01-16T21:19:23.004Z,2.20
2018-01-16T21:21:51.291Z,1.60
2018-01-16T21:24:19.551Z,1.90
2018-01-16T21:26:47.862Z,1.90
2018-01-16T21:29:16.091Z,1.67
2018-01-16T21:31:44.417Z,2.30
2018-01-16T21:34:12.686Z,1.50
2018-01-16T21:36:40.995Z,1.70
2018-01-16T21:39:09.232Z,1.90
2018-01-16T21:41:37.498Z,1.63
2018-01-16T21:44:05.791Z,2.10
2018-01-16T21:46:34.039Z,2.20
2018-01-16T21:49:02.324Z,1.90
2018-01-16T21:51:30.575Z,2.27
2018-01-16T21:53:58.860Z,2.30
2018-01-16T21:56:27.107Z,2.90
2018-01-16T21:58:55.392Z,3.67
2018-01-16T22:01:23.645Z,1.80
2018-01-16T22:03:51.936Z,2.30
2018-01-16T22:06:20.183Z,2.47
2018-01-16T22:08:48.482Z,2.73
2018-01-16T22:11:16.726Z,2.83
2018-01-16T22:13:45.008Z,2.47
2018-01-16T22:16:13.307Z,3.40
2018-01-16T22:18:41.547Z,2.70
2018-01-16T22:21:09.815Z,2.70
2018-01-16T22:23:38.073Z,2.30
2018-01-16T22:26:06.367Z,2.23
2018-01-16T22:28:34.620Z,2.13
2018-01-16T22:31:02.959Z,2.30
2018-01-16T22:33:31.231Z,2.20
2018-01-16T22:35:59.523Z,2.40
2018-01-16T22:38:27.775Z,2.17
2018-01-16T22:40:56.057Z,1.63
2018-01-16T22:43:24.300Z,2.20
2018-01-16T22:45:52.575Z,2.43
2018-01-16T22:48:20.850Z,2.23
2018-01-16T22:50:49.121Z,2.67
2018-01-16T22:53:17.412Z,1.80
2018-01-16T22:55:45.660Z,1.93
2018-01-16T22:58:13.931Z,1.87
2018-01-16T23:00:42.201Z,2.03
2018-01-16T23:03:10.471Z,2.40
2018-01-16T23:05:38.748Z,1.90
2018-01-16T23:08:07.007Z,1.70
2018-01-16T23:10:35.351Z,1.70
2018-01-16T23:13:03.595Z,1.63
2018-01-16T23:15:31.868Z,1.73
2018-01-16T23:18:00.205Z,1.60
2018-01-16T23:20:28.460Z,1.20
2018-01-16T23:22:56.734Z,1.10
2018-01-16T23:25:24.984Z,2.07
2018-01-16T23:27:53.267Z,1.10
2018-01-16T23:30:21.538Z,1.77
2018-01-16T23:32:49.828Z,1.43
2018-01-16T23:35:18.070Z,1.37
2018-01-16T23:37:46.363Z,1.70
2018-01-16T23:40:14.671Z,1.83
2018-01-16T23:42:42.948Z,1.03
2018-01-16T23:45:11.491Z,1.00
2018-01-16T23:47:39.773Z,1.33
2018-01-16T23:50:08.079Z,1.33
2018-01-16T23:52:36.370Z,1.30
2018-01-16T23:55:05.012Z,1.80
2018-01-16T23:57:33.292Z,1.30
